createdAt,value
2017-03-20T00:00:19.986Z,0
2017-03-20T00:01:28.737Z,0
2017-03-20T00:02:38.412Z,0
2017-03-20T00:03:47.787Z,0
2017-03-20T00:04:57.161Z,0
2017-03-20T00:06:06.219Z,0
2017-03-20T00:07:15.906Z,0
2017-03-20T00:08:25.615Z,0
2017-03-20T00:09:34.729Z,0
2017-03-20T00:10:44.052Z,0
2017-03-20T00:11:53.107Z,0
2017-03-20T00:13:02.472Z,0
2017-03-20T00:14:11.854Z,0
2017-03-20T00:15:21.223Z,0
2017-03-20T00:16:30.136Z,0
2017-03-20T00:17:39.502Z,0
2017-03-20T00:18:49.177Z,0
2017-03-20T00:19:59.408Z,0
2017-03-20T00:21:08.727Z,0
2017-03-20T00:22:17.777Z,0
2017-03-20T00:23:26.846Z,0
2017-03-20T00:24:35.915Z,0
2017-03-20T00:25:44.986Z,0
2017-03-20T00:26:53.685Z,0
2017-03-20T00:28:02.749Z,0
2017-03-20T00:29:12.720Z,0
2017-03-20T00:30:21.730Z,0
2017-03-20T00:31:30.420Z,0
2017-03-20T00:32:39.474Z,0
2017-03-20T00:33:49.396Z,0
2017-03-20T00:34:58.746Z,0
2017-03-20T00:36:08.116Z,0
2017-03-20T00:37:17.488Z,0
2017-03-20T00:38:26.500Z,0
2017-03-20T00:39:35.501Z,0
2017-03-20T00:40:44.855Z,0
2017-03-20T00:41:54.214Z,0
2017-03-20T00:43:03.633Z,0
2017-03-20T00:44:13.566Z,0
2017-03-20T00:45:22.911Z,0
2017-03-20T00:46:31.688Z,0
2017-03-20T00:47:41.356Z,0
2017-03-20T00:48:51.237Z,0
2017-03-20T00:50:00.286Z,0
2017-03-20T00:51:09.318Z,0
2017-03-20T00:52:18.683Z,0
2017-03-20T00:53:28.366Z,0
2017-03-20T00:54:37.740Z,0
2017-03-20T00:55:46.799Z,0
2017-03-20T00:56:55.841Z,0
2017-03-20T00:58:04.909Z,0
2017-03-20T00:59:13.974Z,0
2017-03-20T01:00:22.688Z,0
2017-03-20T01:01:31.784Z,0
2017-03-20T01:02:40.853Z,0
2017-03-20T01:03:50.229Z,0
2017-03-20T01:04:58.991Z,0
2017-03-20T01:06:08.354Z,0
2017-03-20T01:07:18.033Z,0
2017-03-20T01:08:28.015Z,0
2017-03-20T01:09:37.021Z,0
2017-03-20T01:10:46.073Z,0
2017-03-20T01:11:54.791Z,0
2017-03-20T01:13:04.458Z,0
2017-03-20T01:14:13.827Z,0
2017-03-20T01:15:23.208Z,0
2017-03-20T01:16:31.968Z,0
2017-03-20T01:17:41.040Z,0
2017-03-20T01:18:50.418Z,0
2017-03-20T01:20:00.096Z,0
2017-03-20T01:21:09.469Z,0
2017-03-20T01:22:18.533Z,0
2017-03-20T01:23:27.905Z,0
2017-03-20T01:24:36.968Z,0
2017-03-20T01:25:45.678Z,0
2017-03-20T01:26:54.419Z,0
2017-03-20T01:28:04.293Z,0
2017-03-20T01:29:13.674Z,0
2017-03-20T01:30:23.340Z,0
2017-03-20T01:31:32.380Z,0
2017-03-20T01:32:41.735Z,0
2017-03-20T01:33:51.419Z,0
2017-03-20T01:35:00.502Z,0
2017-03-20T01:36:09.878Z,0
2017-03-20T01:37:18.889Z,0
2017-03-20T01:38:27.643Z,0
2017-03-20T01:39:37.016Z,0
2017-03-20T01:40:46.074Z,0
2017-03-20T01:41:55.132Z,0
2017-03-20T01:43:04.145Z,0
2017-03-20T01:44:13.749Z,0
2017-03-20T01:45:23.111Z,0
2017-03-20T01:46:32.130Z,0
2017-03-20T01:47:41.761Z,0
2017-03-20T01:48:50.823Z,0
2017-03-20T01:50:00.746Z,0
2017-03-20T01:51:10.093Z,0
2017-03-20T01:52:19.464Z,0
2017-03-20T01:53:29.132Z,0
2017-03-20T01:54:38.804Z,0
2017-03-20T01:55:47.565Z,0
2017-03-20T01:56:56.629Z,0
2017-03-20T01:58:06.421Z,0
2017-03-20T01:59:15.799Z,0
2017-03-20T02:00:24.873Z,0
2017-03-20T02:01:33.898Z,0
2017-03-20T02:02:43.281Z,0
2017-03-20T02:03:52.963Z,0
2017-03-20T02:05:02.334Z,0
2017-03-20T02:06:11.427Z,0
2017-03-20T02:07:20.193Z,0
2017-03-20T02:08:29.265Z,0
2017-03-20T02:09:38.274Z,0
2017-03-20T02:10:47.024Z,0
2017-03-20T02:11:55.781Z,0
2017-03-20T02:13:04.835Z,0
2017-03-20T02:14:13.897Z,0
2017-03-20T02:15:22.971Z,0
2017-03-20T02:16:31.977Z,0
2017-03-20T02:17:41.331Z,0
2017-03-20T02:18:50.702Z,0
2017-03-20T02:19:59.469Z,0
2017-03-20T02:21:08.845Z,0
2017-03-20T02:22:17.594Z,0
2017-03-20T02:23:26.979Z,0
2017-03-20T02:24:36.350Z,0
2017-03-20T02:25:45.090Z,0
2017-03-20T02:26:54.144Z,0
2017-03-20T02:28:03.520Z,0
2017-03-20T02:29:13.198Z,0
2017-03-20T02:30:22.566Z,0
2017-03-20T02:31:31.270Z,0
2017-03-20T02:32:40.013Z,0
2017-03-20T02:33:49.690Z,0
2017-03-20T02:34:59.054Z,0
2017-03-20T02:36:07.820Z,0
2017-03-20T02:37:17.488Z,0
2017-03-20T02:38:26.504Z,0
2017-03-20T02:39:35.565Z,0
2017-03-20T02:40:44.610Z,0
2017-03-20T02:41:53.386Z,0
2017-03-20T02:43:03.059Z,0
2017-03-20T02:44:12.734Z,0
2017-03-20T02:45:22.349Z,0
2017-03-20T02:46:31.673Z,0
2017-03-20T02:47:41.625Z,0
2017-03-20T02:48:51.297Z,0
2017-03-20T02:50:00.617Z,0
2017-03-20T02:51:09.618Z,0
2017-03-20T02:52:18.365Z,0
2017-03-20T02:53:28.075Z,0
2017-03-20T02:54:37.455Z,0
2017-03-20T02:55:46.212Z,0
2017-03-20T02:56:55.579Z,0
2017-03-20T02:58:05.561Z,0
2017-03-20T02:59:15.539Z,0
2017-03-20T03:00:24.948Z,0
2017-03-20T03:01:34.319Z,0
2017-03-20T03:02:43.637Z,0
2017-03-20T03:03:52.956Z,0
2017-03-20T03:05:02.317Z,0
2017-03-20T03:06:11.385Z,0
2017-03-20T03:07:20.445Z,0
2017-03-20T03:08:29.811Z,0
2017-03-20T03:09:40.096Z,0
2017-03-20T03:10:48.847Z,0
2017-03-20T03:11:57.909Z,0
2017-03-20T03:13:07.226Z,0
2017-03-20T03:14:17.494Z,0
2017-03-20T03:15:26.865Z,0
2017-03-20T03:16:35.917Z,0
2017-03-20T03:17:45.290Z,0
2017-03-20T03:18:54.656Z,0
2017-03-20T03:20:03.666Z,0
2017-03-20T03:21:12.660Z,0
2017-03-20T03:22:21.713Z,0
2017-03-20T03:23:30.790Z,0
2017-03-20T03:24:40.154Z,0
2017-03-20T03:25:49.535Z,0
2017-03-20T03:26:58.297Z,0
2017-03-20T03:28:07.370Z,0
2017-03-20T03:29:17.347Z,0
2017-03-20T03:30:26.441Z,0
2017-03-20T03:31:35.533Z,0
2017-03-20T03:32:44.898Z,0
2017-03-20T03:33:54.820Z,0
2017-03-20T03:35:04.071Z,0
2017-03-20T03:36:13.137Z,0
2017-03-20T03:37:22.196Z,0
2017-03-20T03:38:31.258Z,0
2017-03-20T03:39:40.586Z,0
2017-03-20T03:40:49.331Z,0
2017-03-20T03:41:58.401Z,0
2017-03-20T03:43:07.474Z,0
2017-03-20T03:44:17.091Z,0
2017-03-20T03:45:26.289Z,0
2017-03-20T03:46:35.379Z,0
2017-03-20T03:47:45.048Z,0
2017-03-20T03:48:54.461Z,0
2017-03-20T03:50:03.781Z,0
2017-03-20T03:51:12.829Z,0
2017-03-20T03:52:21.881Z,0
2017-03-20T03:53:30.933Z,0
2017-03-20T03:54:40.307Z,0
2017-03-20T03:56:04.267Z,0
2017-03-20T03:57:13.037Z,0
2017-03-20T03:58:22.426Z,0
2017-03-20T03:59:32.115Z,0
2017-03-20T04:00:41.162Z,0
2017-03-20T04:01:50.126Z,0
2017-03-20T04:02:59.519Z,0
2017-03-20T04:04:08.295Z,0
2017-03-20T04:05:17.678Z,0
2017-03-20T04:06:27.059Z,0
2017-03-20T04:07:36.087Z,0
2017-03-20T04:08:45.704Z,0
2017-03-20T04:09:54.764Z,0
2017-03-20T04:11:04.147Z,0
2017-03-20T04:12:12.917Z,0
2017-03-20T04:13:22.284Z,0
2017-03-20T04:14:32.275Z,0
2017-03-20T04:15:41.337Z,0
2017-03-20T04:16:50.299Z,0
2017-03-20T04:17:59.738Z,0
2017-03-20T04:19:09.054Z,0
2017-03-20T04:20:18.684Z,0
2017-03-20T04:21:27.770Z,0
2017-03-20T04:22:36.905Z,0
2017-03-20T04:23:46.590Z,0
2017-03-20T04:24:56.543Z,0
2017-03-20T04:26:06.218Z,0
2017-03-20T04:27:15.295Z,0
2017-03-20T04:28:25.008Z,0
2017-03-20T04:29:34.646Z,0
2017-03-20T04:30:44.309Z,0
2017-03-20T04:31:53.085Z,0
2017-03-20T04:33:02.465Z,0
2017-03-20T04:34:11.798Z,0
2017-03-20T04:35:20.847Z,0
2017-03-20T04:36:29.923Z,0
2017-03-20T04:37:39.306Z,0
2017-03-20T04:38:48.693Z,0
2017-03-20T04:39:58.077Z,0
2017-03-20T04:41:06.849Z,0
2017-03-20T04:42:15.938Z,0
2017-03-20T04:43:25.328Z,0
2017-03-20T04:44:34.664Z,0
2017-03-20T04:45:43.715Z,0
2017-03-20T04:46:52.484Z,0
2017-03-20T04:48:01.561Z,0
2017-03-20T04:49:11.489Z,0
2017-03-20T04:50:21.111Z,0
2017-03-20T04:51:29.813Z,0
2017-03-20T04:52:39.499Z,0
2017-03-20T04:53:48.886Z,0
2017-03-20T04:54:58.570Z,0
2017-03-20T04:56:07.946Z,0
2017-03-20T04:57:17.016Z,0
2017-03-20T04:58:26.642Z,0
2017-03-20T04:59:36.004Z,0
2017-03-20T05:00:45.379Z,0
2017-03-20T05:01:54.451Z,0
2017-03-20T05:03:04.448Z,0
2017-03-20T05:04:14.142Z,0
2017-03-20T05:05:23.828Z,0
2017-03-20T05:06:32.590Z,0
2017-03-20T05:07:41.975Z,0
2017-03-20T05:08:51.672Z,0
2017-03-20T05:10:01.045Z,0
2017-03-20T05:11:10.421Z,0
2017-03-20T05:12:19.758Z,0
2017-03-20T05:13:29.116Z,0
2017-03-20T05:14:38.811Z,0
2017-03-20T05:15:47.763Z,0
2017-03-20T05:16:56.527Z,0
2017-03-20T05:18:05.594Z,0
2017-03-20T05:19:15.215Z,0
2017-03-20T05:20:24.881Z,0
2017-03-20T05:21:33.646Z,0
2017-03-20T05:22:43.333Z,0
2017-03-20T05:23:53.626Z,0
2017-03-20T05:25:02.707Z,0
2017-03-20T05:26:11.778Z,0
2017-03-20T05:27:20.858Z,0
2017-03-20T05:28:30.544Z,0
2017-03-20T05:29:40.252Z,4
2017-03-20T05:30:49.026Z,0
2017-03-20T05:31:57.804Z,4
2017-03-20T05:33:06.826Z,4
2017-03-20T05:34:17.109Z,4
2017-03-20T05:35:26.512Z,0
2017-03-20T05:36:35.288Z,0
2017-03-20T05:37:44.364Z,4
2017-03-20T05:38:54.354Z,4
2017-03-20T05:40:03.426Z,4
2017-03-20T05:41:12.493Z,8
2017-03-20T05:42:21.202Z,8
2017-03-20T05:43:30.258Z,8
2017-03-20T05:44:39.646Z,8
2017-03-20T05:45:48.415Z,12
2017-03-20T05:46:57.500Z,12
2017-03-20T05:48:07.130Z,12
2017-03-20T05:49:16.801Z,12
2017-03-20T05:50:26.455Z,12
2017-03-20T05:51:35.564Z,16
2017-03-20T05:52:44.991Z,12
2017-03-20T05:53:54.929Z,16
2017-03-20T05:55:04.613Z,12
2017-03-20T05:56:13.668Z,12
2017-03-20T05:57:22.377Z,12
2017-03-20T05:58:32.045Z,16
2017-03-20T05:59:41.430Z,12
2017-03-20T06:00:50.807Z,12
2017-03-20T06:01:59.612Z,16
2017-03-20T06:03:09.007Z,16
2017-03-20T06:04:18.295Z,16
2017-03-20T06:05:27.316Z,20
2017-03-20T06:06:36.384Z,20
2017-03-20T06:07:45.774Z,20
2017-03-20T06:08:55.415Z,20
2017-03-20T06:10:04.993Z,20
2017-03-20T06:11:14.381Z,20
2017-03-20T06:12:23.455Z,28
2017-03-20T06:13:32.192Z,32
2017-03-20T06:14:40.953Z,36
2017-03-20T06:15:50.231Z,36
2017-03-20T06:16:59.307Z,44
2017-03-20T06:18:08.381Z,44
2017-03-20T06:19:18.676Z,44
2017-03-20T06:20:28.062Z,44
2017-03-20T06:21:37.143Z,44
2017-03-20T06:22:46.570Z,48
2017-03-20T06:23:56.661Z,44
2017-03-20T06:25:05.975Z,48
2017-03-20T06:26:14.734Z,48
2017-03-20T06:27:24.114Z,52
2017-03-20T06:28:34.104Z,56
2017-03-20T06:29:43.482Z,68
2017-03-20T06:30:52.574Z,52
2017-03-20T06:32:01.650Z,60
2017-03-20T06:33:11.353Z,56
2017-03-20T06:34:21.049Z,64
2017-03-20T06:35:29.811Z,64
2017-03-20T06:36:38.583Z,64
2017-03-20T06:37:48.582Z,64
2017-03-20T06:38:58.879Z,76
2017-03-20T06:40:08.231Z,68
2017-03-20T06:41:17.267Z,60
2017-03-20T06:42:26.042Z,64
2017-03-20T06:43:35.428Z,76
2017-03-20T06:44:45.405Z,68
2017-03-20T06:45:54.767Z,76
2017-03-20T06:47:04.466Z,88
2017-03-20T06:48:14.557Z,80
2017-03-20T06:49:23.622Z,96
2017-03-20T06:50:33.009Z,104
2017-03-20T06:51:42.866Z,112
2017-03-20T06:52:52.180Z,152
2017-03-20T06:54:01.823Z,164
2017-03-20T06:55:10.881Z,168
2017-03-20T06:56:19.680Z,200
2017-03-20T06:57:28.654Z,164
2017-03-20T06:58:37.394Z,148
2017-03-20T06:59:46.463Z,156
2017-03-20T07:00:55.540Z,124
2017-03-20T07:02:04.916Z,120
2017-03-20T07:03:14.769Z,128
2017-03-20T07:04:24.144Z,120
2017-03-20T07:05:33.819Z,104
2017-03-20T07:06:42.904Z,104
2017-03-20T07:07:52.619Z,88
2017-03-20T07:09:02.016Z,104
2017-03-20T07:10:11.681Z,116
2017-03-20T07:11:20.743Z,104
2017-03-20T07:12:30.129Z,96
2017-03-20T07:13:40.083Z,116
2017-03-20T07:14:49.455Z,96
2017-03-20T07:15:58.533Z,116
2017-03-20T07:17:07.517Z,124
2017-03-20T07:18:17.208Z,124
2017-03-20T07:19:26.890Z,136
2017-03-20T07:20:35.968Z,132
2017-03-20T07:21:45.360Z,116
2017-03-20T07:22:54.432Z,100
2017-03-20T07:24:04.157Z,104
2017-03-20T07:25:13.241Z,88
2017-03-20T07:26:22.314Z,116
2017-03-20T07:27:31.091Z,164
2017-03-20T07:28:40.174Z,284
2017-03-20T07:29:49.870Z,216
2017-03-20T07:30:59.143Z,196
2017-03-20T07:32:08.474Z,212
2017-03-20T07:33:17.541Z,256
2017-03-20T07:34:27.551Z,212
2017-03-20T07:35:36.933Z,200
2017-03-20T07:36:46.315Z,180
2017-03-20T07:37:55.085Z,168
2017-03-20T07:39:04.422Z,168
2017-03-20T07:40:13.786Z,140
2017-03-20T07:41:23.410Z,132
2017-03-20T07:42:32.184Z,132
2017-03-20T07:43:42.148Z,128
2017-03-20T07:44:51.219Z,132
2017-03-20T07:46:00.292Z,136
2017-03-20T07:47:09.386Z,152
2017-03-20T07:48:18.768Z,144
2017-03-20T07:49:27.802Z,128
2017-03-20T07:50:37.418Z,124
2017-03-20T07:51:46.989Z,124
2017-03-20T07:52:56.377Z,120
2017-03-20T07:54:05.773Z,124
2017-03-20T07:55:15.259Z,152
2017-03-20T07:56:24.341Z,160
2017-03-20T07:57:33.113Z,168
2017-03-20T07:58:42.497Z,208
2017-03-20T07:59:52.442Z,188
2017-03-20T08:01:01.759Z,188
2017-03-20T08:02:10.526Z,208
2017-03-20T08:03:20.222Z,256
2017-03-20T08:04:29.918Z,188
2017-03-20T08:05:38.693Z,200
2017-03-20T08:06:48.069Z,176
2017-03-20T08:07:57.732Z,156
2017-03-20T08:09:07.726Z,156
2017-03-20T08:10:17.107Z,160
2017-03-20T08:11:26.186Z,176
2017-03-20T08:12:35.859Z,200
2017-03-20T08:13:45.809Z,208
2017-03-20T08:14:55.807Z,204
2017-03-20T08:16:05.191Z,176
2017-03-20T08:17:14.274Z,140
2017-03-20T08:18:23.606Z,136
2017-03-20T08:19:33.498Z,144
2017-03-20T08:20:43.199Z,152
2017-03-20T08:21:52.589Z,196
2017-03-20T08:23:02.272Z,212
2017-03-20T08:24:11.601Z,172
2017-03-20T08:25:21.213Z,184
2017-03-20T08:26:29.974Z,192
2017-03-20T08:27:39.661Z,224
2017-03-20T08:28:49.299Z,248
2017-03-20T08:29:58.374Z,236
2017-03-20T08:31:07.450Z,268
2017-03-20T08:32:16.523Z,264
2017-03-20T08:33:25.298Z,296
2017-03-20T08:34:34.382Z,292
2017-03-20T08:35:43.148Z,280
2017-03-20T08:36:52.217Z,356
2017-03-20T08:38:01.909Z,276
2017-03-20T08:39:11.291Z,316
2017-03-20T08:40:20.628Z,340
2017-03-20T08:41:29.706Z,332
2017-03-20T08:42:39.096Z,300
2017-03-20T08:43:49.116Z,300
2017-03-20T08:44:58.506Z,308
2017-03-20T08:46:07.890Z,268
2017-03-20T08:47:16.970Z,272
2017-03-20T08:48:26.659Z,280
2017-03-20T08:49:36.047Z,284
2017-03-20T08:50:45.618Z,280
2017-03-20T08:51:54.397Z,304
2017-03-20T08:53:04.398Z,300
2017-03-20T08:54:13.428Z,324
2017-03-20T08:55:22.485Z,316
2017-03-20T08:56:31.514Z,296
2017-03-20T08:57:40.841Z,340
2017-03-20T08:58:50.529Z,392
2017-03-20T08:59:59.300Z,396
2017-03-20T09:01:08.321Z,368
2017-03-20T09:02:17.072Z,476
2017-03-20T09:03:26.453Z,464
2017-03-20T09:04:36.155Z,440
2017-03-20T09:05:44.922Z,496
2017-03-20T09:06:53.995Z,500
2017-03-20T09:08:03.572Z,484
2017-03-20T09:09:12.963Z,416
2017-03-20T09:10:21.991Z,544
2017-03-20T09:11:30.750Z,380
2017-03-20T09:12:39.522Z,424
2017-03-20T09:13:48.605Z,420
2017-03-20T09:14:58.552Z,356
2017-03-20T09:16:07.627Z,364
2017-03-20T09:17:17.002Z,384
2017-03-20T09:18:26.124Z,456
2017-03-20T09:19:35.523Z,504
2017-03-20T09:20:44.803Z,404
2017-03-20T09:21:53.578Z,364
2017-03-20T09:23:02.355Z,376
2017-03-20T09:24:11.740Z,360
2017-03-20T09:25:21.078Z,412
2017-03-20T09:26:30.387Z,424
2017-03-20T09:27:39.755Z,624
2017-03-20T09:28:49.290Z,632
2017-03-20T09:29:58.694Z,640
2017-03-20T09:31:07.501Z,544
2017-03-20T09:32:16.881Z,552
2017-03-20T09:33:25.655Z,568
2017-03-20T09:34:34.728Z,628
2017-03-20T09:35:43.805Z,572
2017-03-20T09:36:52.894Z,556
2017-03-20T09:38:01.972Z,552
2017-03-20T09:39:11.360Z,432
2017-03-20T09:40:21.067Z,324
2017-03-20T09:41:29.839Z,372
2017-03-20T09:42:38.616Z,436
2017-03-20T09:43:48.302Z,472
2017-03-20T09:44:57.687Z,472
2017-03-20T09:46:06.908Z,484
2017-03-20T09:47:15.732Z,468
2017-03-20T09:48:24.817Z,516
2017-03-20T09:49:34.516Z,512
2017-03-20T09:50:43.599Z,512
2017-03-20T09:51:52.677Z,476
2017-03-20T09:53:01.450Z,496
2017-03-20T09:54:10.475Z,528
2017-03-20T09:55:19.845Z,404
2017-03-20T09:56:29.234Z,428
2017-03-20T09:57:38.927Z,312
2017-03-20T09:58:48.325Z,396
2017-03-20T09:59:58.267Z,376
2017-03-20T10:01:07.349Z,388
2017-03-20T10:02:16.418Z,444
2017-03-20T10:03:25.750Z,356
2017-03-20T10:04:35.367Z,408
2017-03-20T10:05:44.154Z,308
2017-03-20T10:06:53.223Z,288
2017-03-20T10:08:02.248Z,292
2017-03-20T10:09:12.222Z,304
2017-03-20T10:10:21.590Z,284
2017-03-20T10:11:30.641Z,312
2017-03-20T10:12:39.720Z,372
2017-03-20T10:13:49.716Z,448
2017-03-20T10:14:59.412Z,392
2017-03-20T10:16:08.476Z,424
2017-03-20T10:17:17.509Z,460
2017-03-20T10:18:26.270Z,472
2017-03-20T10:19:35.357Z,524
2017-03-20T10:20:44.739Z,568
2017-03-20T10:21:53.459Z,608
2017-03-20T10:23:02.515Z,548
2017-03-20T10:24:11.900Z,532
2017-03-20T10:25:21.237Z,568
2017-03-20T10:26:30.295Z,460
2017-03-20T10:27:39.676Z,588
2017-03-20T10:28:49.668Z,524
2017-03-20T10:29:59.557Z,520
2017-03-20T10:31:08.585Z,580
2017-03-20T10:32:17.336Z,764
2017-03-20T10:33:26.419Z,532
2017-03-20T10:34:35.751Z,492
2017-03-20T10:35:44.805Z,472
2017-03-20T10:36:54.129Z,456
2017-03-20T10:38:03.202Z,496
2017-03-20T10:39:12.539Z,564
2017-03-20T10:40:21.593Z,564
2017-03-20T10:41:30.663Z,652
2017-03-20T10:42:40.056Z,656
2017-03-20T10:43:49.392Z,664
2017-03-20T10:44:58.706Z,564
2017-03-20T10:46:08.268Z,500
2017-03-20T10:47:17.378Z,636
2017-03-20T10:48:26.751Z,600
2017-03-20T10:49:36.141Z,548
2017-03-20T10:50:44.910Z,512
2017-03-20T10:51:53.716Z,308
2017-03-20T10:53:02.430Z,280
2017-03-20T10:54:12.150Z,248
2017-03-20T10:55:21.219Z,288
2017-03-20T10:56:30.791Z,356
2017-03-20T10:57:39.501Z,352
2017-03-20T10:58:48.878Z,372
2017-03-20T10:59:58.866Z,392
2017-03-20T11:01:07.942Z,472
2017-03-20T11:02:16.960Z,464
2017-03-20T11:03:26.312Z,408
2017-03-20T11:04:35.387Z,348
2017-03-20T11:05:44.712Z,360
2017-03-20T11:06:53.414Z,372
2017-03-20T11:08:02.483Z,388
2017-03-20T11:09:11.858Z,404
2017-03-20T11:10:20.926Z,444
2017-03-20T11:11:29.696Z,488
2017-03-20T11:12:38.770Z,500
2017-03-20T11:13:48.147Z,540
2017-03-20T11:14:57.523Z,568
2017-03-20T11:16:06.907Z,656
2017-03-20T11:17:16.292Z,716
2017-03-20T11:18:25.082Z,708
2017-03-20T11:19:34.152Z,676
2017-03-20T11:20:43.224Z,660
2017-03-20T11:21:51.996Z,632
2017-03-20T11:23:01.072Z,608
2017-03-20T11:24:10.955Z,748
2017-03-20T11:25:20.354Z,836
2017-03-20T11:26:29.121Z,596
2017-03-20T11:27:38.495Z,684
2017-03-20T11:28:47.515Z,660
2017-03-20T11:29:57.490Z,688
2017-03-20T11:31:06.512Z,760
2017-03-20T11:32:15.216Z,692
2017-03-20T11:33:24.928Z,652
2017-03-20T11:34:34.815Z,752
2017-03-20T11:35:44.488Z,808
2017-03-20T11:36:53.564Z,852
2017-03-20T11:38:02.682Z,816
2017-03-20T11:39:12.048Z,688
2017-03-20T11:40:21.116Z,676
2017-03-20T11:41:29.925Z,704
2017-03-20T11:42:38.943Z,712
2017-03-20T11:43:47.697Z,652
2017-03-20T11:44:57.590Z,636
2017-03-20T11:46:06.367Z,580
2017-03-20T11:47:15.137Z,644
2017-03-20T11:48:24.830Z,700
2017-03-20T11:49:34.216Z,1080
2017-03-20T11:50:43.548Z,1036
2017-03-20T11:51:52.279Z,1056
2017-03-20T11:53:01.660Z,752
2017-03-20T11:54:10.426Z,1288
2017-03-20T11:55:20.148Z,944
2017-03-20T11:56:29.422Z,892
2017-03-20T11:57:38.788Z,908
2017-03-20T11:58:48.474Z,1124
2017-03-20T11:59:57.253Z,1112
2017-03-20T12:01:06.023Z,1260
2017-03-20T12:02:15.299Z,1024
2017-03-20T12:03:24.942Z,1436
2017-03-20T12:04:34.015Z,1832
2017-03-20T12:05:42.788Z,1040
2017-03-20T12:06:51.555Z,772
2017-03-20T12:08:00.325Z,640
2017-03-20T12:09:09.707Z,636
2017-03-20T12:10:18.782Z,620
2017-03-20T12:11:27.847Z,620
2017-03-20T12:12:37.124Z,592
2017-03-20T12:13:46.445Z,588
2017-03-20T12:14:55.513Z,564
2017-03-20T12:16:04.895Z,472
2017-03-20T12:17:13.615Z,440
2017-03-20T12:18:22.678Z,504
2017-03-20T12:19:32.161Z,516
2017-03-20T12:20:40.935Z,592
2017-03-20T12:21:49.659Z,612
2017-03-20T12:22:59.027Z,808
2017-03-20T12:24:08.107Z,816
2017-03-20T12:25:17.779Z,832
2017-03-20T12:26:27.141Z,916
2017-03-20T12:27:36.193Z,976
2017-03-20T12:28:45.503Z,1028
2017-03-20T12:29:54.873Z,940
2017-03-20T12:31:03.959Z,1224
2017-03-20T12:32:13.031Z,2272
2017-03-20T12:33:23.016Z,2604
2017-03-20T12:34:32.029Z,2520
2017-03-20T12:35:41.392Z,1556
2017-03-20T12:36:50.123Z,1268
2017-03-20T12:37:59.184Z,1428
2017-03-20T12:39:17.838Z,1160
2017-03-20T12:40:26.903Z,1404
2017-03-20T12:41:36.239Z,1520
2017-03-20T12:42:45.307Z,1512
2017-03-20T12:43:55.305Z,1196
2017-03-20T12:45:04.987Z,892
2017-03-20T12:46:14.055Z,1180
2017-03-20T12:47:22.825Z,1216
2017-03-20T12:48:31.607Z,984
2017-03-20T12:49:40.999Z,1136
2017-03-20T12:50:50.330Z,1588
2017-03-20T12:52:00.009Z,1808
2017-03-20T12:53:09.397Z,1092
2017-03-20T12:54:18.474Z,988
2017-03-20T12:55:27.249Z,1020
2017-03-20T12:56:36.298Z,1320
2017-03-20T12:57:45.370Z,944
2017-03-20T12:58:54.695Z,1048
2017-03-20T13:00:03.467Z,1312
2017-03-20T13:01:12.791Z,1256
2017-03-20T13:02:21.813Z,1320
2017-03-20T13:03:31.138Z,1456
2017-03-20T13:04:40.500Z,1536
2017-03-20T13:05:49.587Z,1656
2017-03-20T13:06:58.651Z,1484
2017-03-20T13:08:07.673Z,1396
2017-03-20T13:09:17.342Z,1288
2017-03-20T13:10:26.723Z,1256
2017-03-20T13:11:36.244Z,1620
2017-03-20T13:12:45.616Z,1864
2017-03-20T13:13:54.391Z,2016
2017-03-20T13:15:04.279Z,1812
2017-03-20T13:16:13.047Z,1668
2017-03-20T13:17:22.124Z,2268
2017-03-20T13:18:31.204Z,1956
2017-03-20T13:19:39.975Z,1676
2017-03-20T13:20:49.960Z,1140
2017-03-20T13:21:58.820Z,1168
2017-03-20T13:23:08.184Z,1344
2017-03-20T13:24:17.872Z,1348
2017-03-20T13:25:26.632Z,1056
2017-03-20T13:26:35.806Z,1012
2017-03-20T13:27:44.895Z,852
2017-03-20T13:28:54.285Z,796
2017-03-20T13:30:03.983Z,820
2017-03-20T13:31:13.046Z,808
2017-03-20T13:32:21.824Z,748
2017-03-20T13:33:30.628Z,664
2017-03-20T13:34:39.699Z,908
2017-03-20T13:35:48.777Z,800
2017-03-20T13:36:57.553Z,744
2017-03-20T13:38:06.332Z,904
2017-03-20T13:39:15.749Z,1000
2017-03-20T13:40:24.822Z,840
2017-03-20T13:41:33.593Z,652
2017-03-20T13:42:42.965Z,1192
2017-03-20T13:43:52.656Z,1316
2017-03-20T13:45:02.033Z,1544
2017-03-20T13:46:10.793Z,1568
2017-03-20T13:47:19.560Z,1740
2017-03-20T13:48:28.646Z,1284
2017-03-20T13:49:37.720Z,1368
2017-03-20T13:50:46.491Z,1252
2017-03-20T13:51:55.249Z,1084
2017-03-20T13:53:04.034Z,912
2017-03-20T13:54:13.410Z,1216
2017-03-20T13:55:22.430Z,1392
2017-03-20T13:56:31.836Z,1136
2017-03-20T13:57:41.091Z,996
2017-03-20T13:58:50.463Z,916
2017-03-20T13:59:59.862Z,1132
2017-03-20T14:01:08.943Z,972
2017-03-20T14:02:18.030Z,896
2017-03-20T14:03:27.333Z,816
2017-03-20T14:04:36.708Z,792
2017-03-20T14:05:45.478Z,720
2017-03-20T14:06:54.243Z,772
2017-03-20T14:08:03.326Z,680
2017-03-20T14:09:12.710Z,652
2017-03-20T14:10:21.785Z,524
2017-03-20T14:11:30.561Z,488
2017-03-20T14:12:39.951Z,432
2017-03-20T14:13:49.636Z,416
2017-03-20T14:14:59.263Z,404
2017-03-20T14:16:08.318Z,460
2017-03-20T14:17:17.089Z,384
2017-03-20T14:18:26.160Z,360
2017-03-20T14:19:35.546Z,360
2017-03-20T14:20:44.814Z,348
2017-03-20T14:21:53.836Z,336
2017-03-20T14:23:02.605Z,304
2017-03-20T14:24:12.339Z,308
2017-03-20T14:25:21.725Z,288
2017-03-20T14:26:31.404Z,332
2017-03-20T14:27:40.478Z,368
2017-03-20T14:28:49.245Z,336
2017-03-20T14:29:58.595Z,300
2017-03-20T14:31:08.198Z,292
2017-03-20T14:32:17.267Z,284
2017-03-20T14:33:26.040Z,284
2017-03-20T14:34:35.369Z,276
2017-03-20T14:35:44.734Z,292
2017-03-20T14:36:53.499Z,292
2017-03-20T14:38:02.569Z,264
2017-03-20T14:39:12.408Z,228
2017-03-20T14:40:21.477Z,188
2017-03-20T14:41:30.241Z,216
2017-03-20T14:42:39.315Z,232
2017-03-20T14:43:48.332Z,192
2017-03-20T14:44:57.651Z,172
2017-03-20T14:46:06.725Z,168
2017-03-20T14:47:15.994Z,164
2017-03-20T14:48:25.064Z,164
2017-03-20T14:49:33.869Z,176
2017-03-20T14:50:42.885Z,196
2017-03-20T14:51:51.640Z,192
2017-03-20T14:53:00.710Z,188
2017-03-20T14:54:10.088Z,168
2017-03-20T14:55:19.826Z,156
2017-03-20T14:56:28.596Z,168
2017-03-20T14:57:37.970Z,168
2017-03-20T14:58:47.668Z,172
2017-03-20T14:59:56.693Z,176
2017-03-20T15:01:05.758Z,176
2017-03-20T15:02:14.527Z,176
2017-03-20T15:03:24.526Z,156
2017-03-20T15:04:34.206Z,148
2017-03-20T15:05:42.967Z,156
2017-03-20T15:06:51.733Z,156
2017-03-20T15:08:00.455Z,132
2017-03-20T15:09:10.069Z,116
2017-03-20T15:10:19.726Z,100
2017-03-20T15:11:28.508Z,84
2017-03-20T15:12:37.835Z,76
2017-03-20T15:13:47.201Z,88
2017-03-20T15:14:56.881Z,96
2017-03-20T15:16:06.263Z,108
2017-03-20T15:17:15.230Z,120
2017-03-20T15:18:24.920Z,140
2017-03-20T15:19:33.956Z,152
2017-03-20T15:20:43.038Z,164
2017-03-20T15:21:51.800Z,148
2017-03-20T15:23:01.790Z,152
2017-03-20T15:24:11.159Z,156
2017-03-20T15:25:19.929Z,156
2017-03-20T15:26:28.696Z,160
2017-03-20T15:27:37.779Z,148
2017-03-20T15:28:46.893Z,132
2017-03-20T15:29:56.578Z,112
2017-03-20T15:31:05.598Z,96
2017-03-20T15:32:14.961Z,80
2017-03-20T15:33:23.732Z,76
2017-03-20T15:34:32.747Z,72
2017-03-20T15:35:42.056Z,68
2017-03-20T15:36:51.109Z,72
2017-03-20T15:38:00.442Z,68
2017-03-20T15:39:09.144Z,72
2017-03-20T15:40:18.192Z,80
2017-03-20T15:41:27.268Z,84
2017-03-20T15:42:36.038Z,104
2017-03-20T15:43:45.712Z,128
2017-03-20T15:44:55.397Z,136
2017-03-20T15:46:04.497Z,108
2017-03-20T15:47:13.573Z,92
2017-03-20T15:48:22.647Z,100
2017-03-20T15:49:31.416Z,96
2017-03-20T15:50:40.487Z,92
2017-03-20T15:51:49.564Z,88
2017-03-20T15:52:58.337Z,88
2017-03-20T15:54:07.117Z,84
2017-03-20T15:55:16.137Z,88
2017-03-20T15:56:24.900Z,92
2017-03-20T15:57:33.675Z,92
2017-03-20T15:58:43.060Z,92
2017-03-20T15:59:52.143Z,92
2017-03-20T16:01:01.522Z,88
2017-03-20T16:02:10.598Z,92
2017-03-20T16:03:19.979Z,104
2017-03-20T16:04:29.070Z,104
2017-03-20T16:05:37.783Z,96
2017-03-20T16:06:47.487Z,92
2017-03-20T16:07:56.870Z,88
2017-03-20T16:09:06.555Z,72
2017-03-20T16:10:15.585Z,64
2017-03-20T16:11:24.337Z,68
2017-03-20T16:12:33.410Z,68
2017-03-20T16:13:42.188Z,68
2017-03-20T16:14:51.258Z,72
2017-03-20T16:15:59.980Z,76
2017-03-20T16:17:08.685Z,76
2017-03-20T16:18:17.746Z,84